Time;durP1;ratioP1;P1;durP2;ratioP2;P2;SDS_P1;SDS_P2;PMS_P1;PMS_P2;Temp;Humidity;BMP_temperature;BMP_pressure;BME280_temperature;BME280_humidity;BME280_pressure;Samples;Min_cycle;Max_cycle;Signal;HPM_P1;HPM_P2
2024/01/24 00:01:09;;;;;;;6.57;5.20;;;8.10;99.90;;;;;;5070680;28;20185;-47
2024/01/24 00:03:34;;;;;;;6.93;4.80;;;8.20;99.90;;;;;;5069329;28;20630;-47
2024/01/24 00:06:00;;;;;;;6.23;5.33;;;8.30;99.90;;;;;;5069733;28;20182;-47
2024/01/24 00:08:26;;;;;;;7.63;5.77;;;8.30;99.90;;;;;;5069084;28;20292;-47
2024/01/24 00:10:51;;;;;;;7.00;5.27;;;8.30;99.90;;;;;;5070429;28;20178;-47
2024/01/24 00:13:17;;;;;;;6.40;5.07;;;8.40;99.90;;;;;;5070817;28;20182;-47
2024/01/24 00:15:42;;;;;;;7.33;5.50;;;8.40;99.90;;;;;;5070657;28;20242;-47
2024/01/24 00:18:08;;;;;;;7.70;5.60;;;8.50;99.90;;;;;;5068135;28;20186;-47
2024/01/24 00:20:33;;;;;;;12.13;6.87;;;8.60;99.90;;;;;;5069412;28;20221;-47
2024/01/24 00:22:59;;;;;;;10.03;6.83;;;8.60;99.90;;;;;;5070034;28;20174;-47
2024/01/24 00:25:24;;;;;;;9.50;6.40;;;8.70;99.90;;;;;;5071013;28;20186;-47
2024/01/24 00:27:50;;;;;;;8.97;6.80;;;8.70;99.90;;;;;;5069229;28;20235;-47
2024/01/24 00:30:15;;;;;;;12.90;7.90;;;8.70;99.90;;;;;;5068861;28;20186;-47
2024/01/24 00:32:41;;;;;;;11.80;8.40;;;8.80;99.90;;;;;;5070476;28;20178;-47
2024/01/24 00:35:07;;;;;;;10.40;8.13;;;8.90;99.90;;;;;;5071215;28;20181;-47
2024/01/24 00:37:32;;;;;;;12.13;8.67;;;8.90;99.90;;;;;;5070432;28;20537;-47
2024/01/24 00:39:58;;;;;;;11.93;8.50;;;8.90;99.90;;;;;;5068763;28;20421;-47
2024/01/24 00:42:23;;;;;;;12.63;9.20;;;9.00;99.90;;;;;;5072872;28;20185;-47
2024/01/24 00:44:50;;;;;;;11.93;9.00;;;9.00;99.90;;;;;;5074227;28;20185;-47
2024/01/24 00:47:20;;;;;;;13.10;8.90;;;9.10;99.90;;;;;;5074238;28;20181;-47
2024/01/24 00:49:46;;;;;;;10.90;8.37;;;9.10;99.90;;;;;;5073296;28;20503;-47
2024/01/24 00:52:11;;;;;;;13.43;9.30;;;9.20;99.90;;;;;;5073924;28;20444;-46
2024/01/24 00:54:37;;;;;;;13.80;8.10;;;9.20;99.90;;;;;;5073716;28;20190;-46
2024/01/24 00:57:03;;;;;;;12.00;9.17;;;9.30;99.90;;;;;;5073880;28;20353;-47
2024/01/24 00:59:29;;;;;;;12.73;9.27;;;9.30;99.90;;;;;;5073980;28;20628;-49
2024/01/24 01:01:54;;;;;;;14.53;10.20;;;9.40;99.90;;;;;;5073672;28;20522;-46
2024/01/24 01:04:20;;;;;;;13.80;9.93;;;9.40;99.90;;;;;;5072829;28;20183;-46
2024/01/24 01:06:46;;;;;;;13.50;8.23;;;9.50;99.90;;;;;;5074003;28;20237;-46
2024/01/24 01:09:12;;;;;;;10.70;8.80;;;9.50;99.90;;;;;;5073260;28;20463;-46
2024/01/24 01:11:38;;;;;;;13.93;8.73;;;9.60;99.90;;;;;;5073781;28;20182;-46
2024/01/24 01:14:04;;;;;;;14.60;9.20;;;9.60;99.90;;;;;;5075074;28;20240;-46
2024/01/24 01:16:29;;;;;;;12.57;8.97;;;9.60;99.90;;;;;;5073298;28;20508;-46
2024/01/24 01:18:55;;;;;;;15.50;9.20;;;9.70;99.90;;;;;;5071477;28;20634;-46
2024/01/24 01:21:20;;;;;;;12.13;7.33;;;9.70;99.90;;;;;;5073834;28;20182;-47
2024/01/24 01:23:46;;;;;;;10.53;8.17;;;9.80;99.90;;;;;;5073943;28;20645;-46
2024/01/24 01:26:12;;;;;;;12.40;8.33;;;9.80;99.90;;;;;;5073279;28;20185;-46
2024/01/24 01:28:37;;;;;;;11.50;8.70;;;9.90;99.90;;;;;;5073375;28;20300;-46
2024/01/24 01:31:03;;;;;;;9.80;7.30;;;9.90;99.90;;;;;;5073174;28;20178;-46
2024/01/24 01:33:28;;;;;;;8.37;6.80;;;10.00;99.90;;;;;;5073387;28;20269;-46
2024/01/24 01:35:54;;;;;;;9.63;7.67;;;10.00;99.90;;;;;;5072228;28;20181;-46
2024/01/24 01:38:19;;;;;;;10.10;7.37;;;10.10;99.90;;;;;;5073319;28;20182;-46
2024/01/24 01:40:45;;;;;;;10.83;7.60;;;10.20;99.90;;;;;;5073607;28;20582;-46
2024/01/24 01:43:14;;;;;;;10.83;9.00;;;10.20;99.90;;;;;;5074098;28;20174;-47
2024/01/24 01:45:41;;;;;;;8.63;7.13;;;10.30;99.90;;;;;;5071889;28;20180;-47
2024/01/24 01:48:09;;;;;;;7.77;6.27;;;10.30;99.90;;;;;;5071806;28;20780;-46
2024/01/24 01:50:35;;;;;;;7.90;6.03;;;10.40;99.90;;;;;;5073357;28;20508;-46
2024/01/24 01:53:02;;;;;;;13.30;6.40;;;10.40;99.90;;;;;;5072559;28;20507;-47
2024/01/24 01:55:28;;;;;;;9.00;6.20;;;10.50;99.90;;;;;;5072716;28;20817;-46
2024/01/24 01:57:54;;;;;;;8.27;6.30;;;10.50;99.90;;;;;;5072030;28;20420;-47
2024/01/24 02:00:20;;;;;;;7.27;5.97;;;10.60;99.90;;;;;;5072357;28;20778;-47
2024/01/24 02:02:49;;;;;;;8.10;6.10;;;10.60;99.90;;;;;;5072806;28;20423;-46
2024/01/24 02:05:15;;;;;;;7.00;6.07;;;10.60;99.90;;;;;;5073273;28;20427;-46
2024/01/24 02:07:45;;;;;;;6.00;5.13;;;10.70;99.90;;;;;;5072736;28;20834;-46
2024/01/24 02:10:12;;;;;;;7.60;5.87;;;10.70;99.90;;;;;;5071697;28;20209;-46
2024/01/24 02:12:37;;;;;;;5.87;4.80;;;10.70;99.90;;;;;;5072192;28;20823;-46
2024/01/24 02:15:03;;;;;;;8.67;5.80;;;10.80;99.90;;;;;;5073106;28;20412;-47
2024/01/24 02:17:29;;;;;;;6.17;5.20;;;10.80;99.90;;;;;;5071838;28;20189;-47
2024/01/24 02:19:54;;;;;;;6.97;5.67;;;10.80;99.90;;;;;;5072469;28;20329;-47
2024/01/24 02:22:20;;;;;;;12.40;6.27;;;10.80;99.90;;;;;;5071850;28;20174;-46
2024/01/24 02:24:45;;;;;;;11.23;5.90;;;10.90;99.90;;;;;;5073016;28;20179;-47
2024/01/24 02:27:11;;;;;;;6.60;5.67;;;11.00;99.90;;;;;;5071074;28;20269;-47
2024/01/24 02:29:36;;;;;;;8.57;6.77;;;11.00;99.90;;;;;;5072047;28;20249;-47
2024/01/24 02:32:02;;;;;;;9.90;6.63;;;11.00;99.90;;;;;;5071980;28;20186;-46
2024/01/24 02:34:28;;;;;;;8.00;6.47;;;11.10;99.90;;;;;;5072482;28;20201;-46
2024/01/24 02:36:53;;;;;;;9.67;6.57;;;11.10;99.90;;;;;;5072525;28;20189;-46
2024/01/24 02:39:19;;;;;;;7.80;6.47;;;11.20;99.90;;;;;;5072832;28;20193;-46
2024/01/24 02:41:45;;;;;;;7.57;6.53;;;11.20;99.90;;;;;;5071026;28;20189;-46
2024/01/24 02:44:10;;;;;;;12.20;6.80;;;11.20;99.90;;;;;;5071703;28;20600;-46
2024/01/24 02:46:36;;;;;;;10.30;6.37;;;11.20;99.90;;;;;;5071992;28;20581;-45
2024/01/24 02:49:02;;;;;;;8.50;7.13;;;11.30;99.90;;;;;;5071608;28;20243;-45
2024/01/24 02:51:28;;;;;;;8.50;7.03;;;11.30;99.90;;;;;;5071355;28;21024;-46
2024/01/24 02:53:53;;;;;;;9.27;7.00;;;11.30;99.90;;;;;;5070435;28;20424;-46
2024/01/24 02:56:19;;;;;;;7.30;6.00;;;11.30;99.90;;;;;;5072311;28;20178;-46
2024/01/24 02:58:46;;;;;;;5.60;5.00;;;11.30;99.90;;;;;;5072718;28;20178;-46
2024/01/24 03:01:11;;;;;;;6.40;4.57;;;11.40;99.90;;;;;;5070332;28;20456;-46
2024/01/24 03:03:40;;;;;;;9.00;5.10;;;11.40;99.90;;;;;;5071599;28;20455;-46
2024/01/24 03:06:05;;;;;;;6.07;4.37;;;11.40;99.90;;;;;;5071132;28;20182;-46
2024/01/24 03:08:48;;;;;;;4.87;4.30;;;11.40;99.90;;;;;;5070934;28;20488;-46
2024/01/24 03:11:15;;;;;;;4.00;3.60;;;11.40;99.90;;;;;;5071368;28;20174;-46
2024/01/24 03:13:40;;;;;;;4.53;3.20;;;11.40;99.90;;;;;;5070630;28;20872;-46
2024/01/24 03:16:07;;;;;;;3.83;3.53;;;11.40;99.90;;;;;;5071262;28;20409;-46
2024/01/24 03:18:34;;;;;;;3.77;2.93;;;11.50;99.90;;;;;;5071292;28;20186;-46
2024/01/24 03:21:00;;;;;;;3.27;3.00;;;11.40;99.90;;;;;;5070981;28;20470;-46
2024/01/24 03:23:27;;;;;;;2.67;2.47;;;11.40;99.90;;;;;;5070653;28;20409;-46
2024/01/24 03:25:53;;;;;;;6.60;2.13;;;11.40;99.90;;;;;;5070237;28;20908;-46
2024/01/24 03:28:18;;;;;;;3.33;1.77;;;11.50;99.90;;;;;;5072190;28;20474;-46
2024/01/24 03:30:44;;;;;;;1.77;1.67;;;11.50;99.90;;;;;;5070753;28;20170;-46
2024/01/24 03:33:09;;;;;;;2.60;1.20;;;11.60;99.90;;;;;;5070333;28;20182;-46
2024/01/24 03:35:35;;;;;;;1.53;1.40;;;11.60;99.90;;;;;;5070794;28;20265;-46
2024/01/24 03:38:00;;;;;;;1.40;1.30;;;11.60;99.90;;;;;;5070692;28;20726;-46
2024/01/24 03:40:26;;;;;;;1.10;1.00;;;11.60;99.90;;;;;;5071101;28;20638;-46
2024/01/24 03:42:51;;;;;;;1.50;1.13;;;11.60;99.90;;;;;;5070756;28;20185;-46
2024/01/24 03:45:17;;;;;;;3.00;1.20;;;11.50;99.90;;;;;;5070271;28;20235;-46
2024/01/24 03:47:44;;;;;;;2.00;1.23;;;11.60;99.90;;;;;;5070749;28;20189;-46
2024/01/24 03:50:10;;;;;;;3.87;1.33;;;11.50;99.90;;;;;;5071057;28;20272;-46
2024/01/24 03:52:35;;;;;;;10.53;1.83;;;11.40;99.90;;;;;;5068964;28;20898;-46
2024/01/24 03:55:01;;;;;;;5.87;1.53;;;11.20;99.90;;;;;;5070687;28;20185;-46
2024/01/24 03:57:27;;;;;;;8.20;2.43;;;11.20;41.90;;;;;;5071587;28;20181;-46
2024/01/24 03:59:52;;;;;;;6.77;1.93;;;11.20;13.30;;;;;;5069125;28;20213;-46
2024/01/24 04:02:18;;;;;;;5.60;1.27;;;11.30;1.80;;;;;;5071160;28;20182;-47
2024/01/24 04:04:43;;;;;;;11.57;1.60;;;11.30;5.90;;;;;;5070387;28;20215;-47
2024/01/24 04:07:09;;;;;;;6.10;1.60;;;11.20;1.00;;;;;;5069743;28;20238;-46
2024/01/24 04:09:34;;;;;;;8.87;1.73;;;11.10;99.90;;;;;;5070217;28;20737;-47
2024/01/24 04:12:00;;;;;;;7.97;1.57;;;11.00;1.00;;;;;;5070603;28;20515;-46
2024/01/24 04:14:25;;;;;;;5.83;1.70;;;10.90;1.00;;;;;;5069921;28;20592;-46
2024/01/24 04:16:51;;;;;;;8.97;1.70;;;10.80;99.90;;;;;;5068932;28;20533;-45
2024/01/24 04:19:17;;;;;;;8.60;1.63;;;10.70;99.90;;;;;;5072112;28;20192;-47
2024/01/24 04:21:45;;;;;;;6.40;1.67;;;10.70;1.00;;;;;;5070448;28;20543;-47
2024/01/24 04:24:11;;;;;;;4.17;1.50;;;10.80;57.50;;;;;;5069584;28;20236;-47
2024/01/24 04:26:37;;;;;;;4.77;1.60;;;10.70;99.90;;;;;;5070568;28;20912;-46
2024/01/24 04:29:02;;;;;;;5.43;1.47;;;10.70;1.00;;;;;;5069650;28;20761;-46
2024/01/24 04:31:28;;;;;;;7.97;1.77;;;10.70;1.00;;;;;;5071080;28;20228;-46
2024/01/24 04:33:55;;;;;;;10.70;2.53;;;10.60;1.00;;;;;;5069724;28;20185;-46
2024/01/24 04:36:20;;;;;;;7.97;1.47;;;10.70;99.90;;;;;;5069550;28;20559;-47
2024/01/24 04:38:46;;;;;;;10.77;2.10;;;10.90;99.90;;;;;;5070029;28;20412;-47
2024/01/24 04:41:11;;;;;;;12.77;2.07;;;11.00;99.90;;;;;;5071945;28;20231;-47
2024/01/24 04:43:38;;;;;;;13.77;1.87;;;11.10;77.00;;;;;;5070166;28;20186;-47
2024/01/24 04:46:03;;;;;;;15.53;2.83;;;11.10;28.70;;;;;;5069677;28;20641;-47
2024/01/24 04:48:29;;;;;;;10.43;1.90;;;11.10;1.00;;;;;;5068305;28;20485;-47
2024/01/24 04:50:54;;;;;;;13.77;2.97;;;11.00;1.00;;;;;;5070057;28;20528;-47
2024/01/24 04:53:20;;;;;;;12.73;2.40;;;11.00;1.00;;;;;;5070870;28;20538;-46
2024/01/24 04:55:46;;;;;;;13.03;2.47;;;10.90;24.20;;;;;;5070190;28;20538;-47
2024/01/24 04:58:11;;;;;;;14.93;2.83;;;10.90;58.20;;;;;;5069288;28;20539;-47
2024/01/24 05:00:37;;;;;;;29.03;2.47;;;10.90;1.00;;;;;;5070821;28;20645;-47
2024/01/24 05:03:03;;;;;;;15.10;2.93;;;10.90;1.00;;;;;;5068926;28;20698;-46
2024/01/24 05:05:28;;;;;;;19.43;3.13;;;10.80;1.00;;;;;;5070930;28;20213;-47
2024/01/24 05:07:54;;;;;;;19.70;3.83;;;10.80;1.00;;;;;;5070197;28;20686;-47
2024/01/24 05:10:20;;;;;;;15.67;3.07;;;10.80;1.00;;;;;;5067779;28;20921;-46
2024/01/24 05:12:45;;;;;;;18.90;3.50;;;10.80;99.90;;;;;;5070980;28;20182;-47
2024/01/24 05:15:12;;;;;;;23.00;3.67;;;10.90;1.00;;;;;;5070072;28;20178;-46
2024/01/24 05:17:39;;;;;;;16.63;3.47;;;10.90;1.00;;;;;;5070986;28;20192;-46
2024/01/24 05:20:06;;;;;;;14.70;3.20;;;11.00;1.00;;;;;;5068980;28;20409;-46
2024/01/24 05:22:32;;;;;;;18.10;3.50;;;10.90;99.90;;;;;;5069139;28;20465;-46
2024/01/24 05:24:58;;;;;;;23.77;4.07;;;10.90;99.90;;;;;;5069885;28;20905;-46
2024/01/24 05:27:23;;;;;;;21.93;3.90;;;10.80;99.90;;;;;;5069255;28;21298;-46
2024/01/24 05:29:49;;;;;;;25.30;4.67;;;10.80;6.30;;;;;;5073884;28;20468;-46
2024/01/24 05:32:15;;;;;;;26.70;3.87;;;10.90;99.90;;;;;;5073575;28;20545;-46
2024/01/24 05:34:40;;;;;;;21.60;3.93;;;10.90;99.90;;;;;;5073425;28;20277;-46
2024/01/24 05:37:06;;;;;;;24.90;4.00;;;10.90;1.00;;;;;;5072355;28;20183;-46
2024/01/24 05:39:31;;;;;;;21.80;2.97;;;11.00;1.00;;;;;;5073198;28;20186;-46
2024/01/24 05:41:57;;;;;;;20.80;4.30;;;11.10;73.60;;;;;;5072987;28;20645;-45
2024/01/24 05:44:23;;;;;;;20.10;3.50;;;11.10;1.00;;;;;;5073225;28;20232;-47
2024/01/24 05:46:48;;;;;;;26.17;4.33;;;11.10;1.00;;;;;;5073465;28;20264;-47
2024/01/24 05:49:14;;;;;;;26.03;3.30;;;11.10;99.90;;;;;;5073286;28;20582;-47
2024/01/24 05:51:39;;;;;;;23.20;3.60;;;11.00;99.90;;;;;;5072669;28;20178;-47
2024/01/24 05:54:05;;;;;;;21.53;3.70;;;11.10;99.90;;;;;;5072118;28;20208;-47
2024/01/24 05:56:31;;;;;;;14.53;3.50;;;11.10;99.90;;;;;;5073073;28;20541;-47
2024/01/24 05:58:56;;;;;;;17.67;3.60;;;11.00;99.90;;;;;;5072699;28;20190;-47
2024/01/24 06:01:22;;;;;;;16.20;3.37;;;11.10;99.90;;;;;;5073527;28;20292;-47
2024/01/24 06:03:47;;;;;;;22.13;3.63;;;11.00;99.90;;;;;;5072576;28;20170;-47
2024/01/24 06:06:13;;;;;;;19.97;4.73;;;11.00;99.90;;;;;;5071628;28;20265;-47
2024/01/24 06:08:39;;;;;;;22.20;4.00;;;11.00;99.90;;;;;;5071887;28;20308;-47
2024/01/24 06:11:05;;;;;;;17.83;3.80;;;11.00;99.90;;;;;;5072974;28;20186;-47
2024/01/24 06:13:31;;;;;;;18.23;3.83;;;11.00;99.90;;;;;;5073085;28;20420;-46
2024/01/24 06:15:56;;;;;;;15.77;3.00;;;11.00;99.90;;;;;;5071822;28;20181;-46
2024/01/24 06:18:22;;;;;;;20.13;3.83;;;11.00;99.90;;;;;;5071435;28;20182;-47
2024/01/24 06:20:48;;;;;;;23.27;4.60;;;11.00;99.90;;;;;;5072244;28;20650;-46
2024/01/24 06:23:13;;;;;;;22.47;4.60;;;11.10;99.90;;;;;;5072300;28;20182;-46
2024/01/24 06:25:39;;;;;;;19.20;4.27;;;11.10;62.10;;;;;;5072372;28;20189;-47
2024/01/24 06:28:05;;;;;;;14.07;3.30;;;11.10;51.00;;;;;;5071762;28;20182;-46
2024/01/24 06:30:30;;;;;;;32.03;4.23;;;11.00;45.50;;;;;;5072940;28;20174;-46
2024/01/24 06:32:56;;;;;;;25.97;4.10;;;10.90;47.90;;;;;;5071332;28;20412;-47
2024/01/24 06:35:23;;;;;;;23.43;4.53;;;10.90;46.70;;;;;;5071322;28;20209;-46
2024/01/24 06:37:51;;;;;;;18.50;3.43;;;10.90;47.40;;;;;;5071987;28;20491;-47
2024/01/24 06:40:18;;;;;;;23.83;4.30;;;10.90;28.90;;;;;;5072535;28;20430;-47
2024/01/24 06:42:43;;;;;;;20.67;4.80;;;10.90;32.30;;;;;;5071405;28;20772;-47
2024/01/24 06:45:09;;;;;;;22.03;3.80;;;10.90;46.70;;;;;;5071797;28;20419;-47
2024/01/24 06:47:35;;;;;;;23.30;4.00;;;10.70;71.10;;;;;;5071493;28;20186;-47
2024/01/24 06:50:01;;;;;;;21.30;3.77;;;10.60;94.30;;;;;;5071855;28;20464;-47
2024/01/24 06:52:28;;;;;;;16.43;3.60;;;10.50;85.00;;;;;;5072099;28;20212;-47
2024/01/24 06:54:54;;;;;;;23.27;4.70;;;10.50;81.50;;;;;;5071192;28;20417;-46
2024/01/24 06:57:19;;;;;;;21.30;4.03;;;10.50;64.70;;;;;;5072116;28;20423;-46
2024/01/24 06:59:46;;;;;;;26.73;4.70;;;10.60;56.10;;;;;;5071380;28;20235;-46
2024/01/24 07:02:13;;;;;;;21.33;4.13;;;10.60;59.30;;;;;;5071525;28;20193;-46
2024/01/24 07:04:38;;;;;;;21.87;3.77;;;10.60;41.70;;;;;;5071859;28;21423;-46
2024/01/24 07:07:04;;;;;;;21.23;3.50;;;10.70;36.60;;;;;;5071032;28;20489;-46
2024/01/24 07:09:29;;;;;;;19.10;4.07;;;10.70;27.70;;;;;;5070755;28;20356;-46
2024/01/24 07:11:55;;;;;;;24.30;4.83;;;10.70;29.90;;;;;;5071141;28;20186;-46
2024/01/24 07:14:20;;;;;;;26.37;4.90;;;10.70;31.30;;;;;;5071833;28;20243;-46
2024/01/24 07:16:46;;;;;;;29.63;4.27;;;10.70;26.20;;;;;;5071232;28;20182;-46
2024/01/24 07:19:12;;;;;;;24.20;4.37;;;10.70;21.80;;;;;;5070701;28;20192;-46
2024/01/24 07:21:37;;;;;;;24.47;4.83;;;10.70;19.80;;;;;;5071485;28;20193;-46
2024/01/24 07:24:03;;;;;;;27.67;4.17;;;10.70;23.20;;;;;;5070375;28;20189;-46
2024/01/24 07:26:29;;;;;;;29.30;5.67;;;10.60;35.80;;;;;;5070524;28;20236;-46
2024/01/24 07:28:55;;;;;;;25.10;4.53;;;10.50;52.40;;;;;;5071640;28;20496;-46
2024/01/24 07:31:20;;;;;;;21.23;4.77;;;10.50;71.80;;;;;;5069863;28;20178;-46
2024/01/24 07:33:46;;;;;;;26.57;4.50;;;10.40;99.90;;;;;;5071862;28;20182;-45
2024/01/24 07:36:11;;;;;;;25.10;4.40;;;10.30;99.90;;;;;;5071275;28;20236;-45
2024/01/24 07:38:37;;;;;;;37.83;6.07;;;10.20;99.90;;;;;;5070685;28;20198;-45
2024/01/24 07:41:04;;;;;;;24.03;5.20;;;10.20;99.90;;;;;;5070397;28;20189;-47
2024/01/24 07:43:30;;;;;;;22.13;5.10;;;10.20;99.90;;;;;;5071210;28;20420;-47
2024/01/24 07:45:56;;;;;;;32.97;5.17;;;10.30;99.90;;;;;;5071066;28;20409;-47
2024/01/24 07:48:21;;;;;;;27.60;4.97;;;10.20;99.90;;;;;;5069206;28;20218;-47
2024/01/24 07:50:49;;;;;;;32.90;5.47;;;10.30;99.90;;;;;;5069747;28;20841;-47
2024/01/24 07:53:14;;;;;;;28.77;6.07;;;10.30;96.90;;;;;;5069690;28;20190;-47
2024/01/24 07:55:40;;;;;;;29.00;4.30;;;10.30;90.20;;;;;;5068903;28;20462;-47
2024/01/24 07:58:05;;;;;;;26.43;4.67;;;10.30;83.40;;;;;;5070949;28;20185;-48
2024/01/24 08:00:31;;;;;;;28.00;5.10;;;10.30;70.90;;;;;;5069742;28;20180;-48
2024/01/24 08:02:58;;;;;;;21.10;4.83;;;10.40;47.50;;;;;;5069223;28;20182;-49
2024/01/24 08:05:23;;;;;;;33.30;5.33;;;10.40;33.70;;;;;;5072155;28;20224;-48
2024/01/24 08:07:50;;;;;;;29.63;5.70;;;10.50;17.60;;;;;;5073360;28;20979;-48
2024/01/24 08:10:18;;;;;;;35.70;5.57;;;10.50;14.40;;;;;;5073383;28;20632;-48
2024/01/24 08:12:43;;;;;;;41.23;6.20;;;10.50;15.60;;;;;;5073373;28;20459;-48
2024/01/24 08:15:09;;;;;;;31.83;6.73;;;10.50;20.60;;;;;;5073344;28;20192;-48
2024/01/24 08:17:36;;;;;;;33.17;5.60;;;10.50;1.00;;;;;;5071992;28;20174;-48
2024/01/24 08:20:04;;;;;;;40.47;6.47;;;10.50;1.00;;;;;;5073455;28;20408;-48
2024/01/24 08:22:30;;;;;;;29.03;5.73;;;10.60;1.00;;;;;;5073372;28;20444;-48
2024/01/24 08:24:56;;;;;;;31.83;5.40;;;10.50;1.00;;;;;;5073390;28;20904;-48
2024/01/24 08:27:22;;;;;;;29.67;5.80;;;10.60;1.00;;;;;;5073436;28;20181;-48
2024/01/24 08:29:47;;;;;;;34.07;6.23;;;10.60;1.00;;;;;;5071823;28;20209;-48
2024/01/24 08:32:13;;;;;;;31.43;4.80;;;10.50;1.00;;;;;;5073383;28;20471;-48
2024/01/24 08:34:38;;;;;;;29.93;6.40;;;10.50;1.00;;;;;;5072940;28;20185;-48
2024/01/24 08:37:05;;;;;;;30.07;6.20;;;10.60;1.00;;;;;;5072883;28;20178;-48
2024/01/24 08:39:31;;;;;;;29.43;6.40;;;10.60;1.00;;;;;;5073153;28;20201;-48
2024/01/24 08:41:57;;;;;;;23.40;5.63;;;10.60;1.00;;;;;;5073084;28;20412;-48
2024/01/24 08:44:22;;;;;;;36.03;5.83;;;10.60;1.00;;;;;;5073349;28;20413;-48
2024/01/24 08:46:50;;;;;;;33.07;5.27;;;10.60;1.00;;;;;;5073214;28;20641;-48
2024/01/24 08:49:16;;;;;;;32.90;5.50;;;10.70;1.00;;;;;;5073054;28;20221;-48
2024/01/24 08:51:41;;;;;;;38.63;6.90;;;10.60;1.00;;;;;;5073193;28;20412;-47
2024/01/24 08:54:08;;;;;;;27.13;6.80;;;10.70;1.00;;;;;;5072728;28;20181;-47
2024/01/24 08:56:33;;;;;;;32.17;5.30;;;10.60;1.00;;;;;;5072976;28;20228;-48
2024/01/24 08:58:59;;;;;;;23.57;4.63;;;10.60;1.00;;;;;;5073088;28;20415;-47
2024/01/24 09:01:25;;;;;;;28.47;6.20;;;10.60;1.00;;;;;;5073156;28;20174;-47
2024/01/24 09:03:50;;;;;;;23.77;5.27;;;10.60;1.00;;;;;;5077040;28;20179;-47
2024/01/24 09:06:16;;;;;;;29.57;4.83;;;10.60;1.00;;;;;;5076590;28;20269;-48
2024/01/24 09:08:44;;;;;;;32.70;6.20;;;10.60;1.00;;;;;;5076683;28;20222;-48
2024/01/24 09:11:09;;;;;;;35.17;6.17;;;10.60;1.00;;;;;;5076627;28;20531;-48
2024/01/24 09:13:35;;;;;;;44.93;6.17;;;10.60;1.00;;;;;;5076275;28;20404;-47
2024/01/24 09:16:01;;;;;;;31.87;5.50;;;10.60;1.00;;;;;;5076348;28;20182;-48
2024/01/24 09:18:27;;;;;;;27.20;5.63;;;10.70;1.00;;;;;;5072874;28;20214;-48
2024/01/24 09:20:53;;;;;;;38.00;6.90;;;10.60;1.00;;;;;;5072352;28;20273;-49
2024/01/24 09:23:18;;;;;;;32.90;5.70;;;10.60;1.00;;;;;;5076250;28;20496;-48
2024/01/24 09:25:44;;;;;;;35.77;6.50;;;10.50;1.00;;;;;;5075880;28;20185;-48
2024/01/24 09:28:10;;;;;;;26.60;5.30;;;10.60;1.00;;;;;;5076204;28;20183;-48
2024/01/24 09:30:36;;;;;;;35.70;6.00;;;10.60;1.00;;;;;;5075985;28;20178;-48
2024/01/24 09:33:03;;;;;;;32.93;6.10;;;10.70;1.00;;;;;;5076098;28;20424;-47
2024/01/24 09:35:29;;;;;;;25.50;5.23;;;10.70;1.00;;;;;;5076170;28;20194;-48
2024/01/24 09:37:55;;;;;;;21.63;4.97;;;10.60;1.00;;;;;;5075811;28;20416;-48
2024/01/24 09:40:21;;;;;;;33.87;5.37;;;10.60;1.00;;;;;;5076044;28;20269;-47
2024/01/24 09:42:46;;;;;;;34.47;5.13;;;10.50;1.00;;;;;;5075894;28;20265;-47
2024/01/24 09:45:16;;;;;;;34.00;6.30;;;10.50;1.00;;;;;;5075966;28;20580;-48
2024/01/24 09:47:45;;;;;;;30.23;4.83;;;10.50;1.00;;;;;;5075819;28;20188;-49
2024/01/24 09:50:12;;;;;;;41.27;5.57;;;10.50;1.00;;;;;;5075743;28;20456;-48
2024/01/24 09:52:39;;;;;;;29.07;6.20;;;10.50;1.00;;;;;;5075798;28;20455;-48
2024/01/24 09:55:06;;;;;;;32.13;5.67;;;10.50;1.00;;;;;;5075478;28;20846;-48
2024/01/24 09:57:33;;;;;;;29.83;5.67;;;10.50;1.00;;;;;;5075699;28;20511;-49
2024/01/24 09:59:59;;;;;;;28.40;5.77;;;10.50;1.00;;;;;;5075292;28;20936;-48
2024/01/24 10:02:28;;;;;;;34.80;6.60;;;10.50;1.00;;;;;;5075685;28;20511;-48
2024/01/24 10:04:54;;;;;;;21.20;5.30;;;10.40;1.00;;;;;;5075403;28;20179;-48
2024/01/24 10:07:20;;;;;;;28.87;6.27;;;10.50;1.00;;;;;;5075243;28;20831;-49
2024/01/24 10:10:04;;;;;;;26.00;5.80;;;10.50;1.00;;;;;;5075330;28;20468;-48
2024/01/24 10:12:30;;;;;;;32.73;6.30;;;10.50;1.00;;;;;;5075134;28;20420;-49
2024/01/24 10:14:56;;;;;;;29.20;4.77;;;10.50;1.00;;;;;;5070604;28;20886;-49
2024/01/24 10:17:21;;;;;;;28.43;5.93;;;10.50;1.00;;;;;;5072594;28;20427;-48
2024/01/24 10:19:47;;;;;;;33.67;5.17;;;10.60;1.00;;;;;;5072916;28;20236;-48
2024/01/24 10:22:12;;;;;;;30.50;4.83;;;10.50;1.00;;;;;;5071874;28;20182;-48
2024/01/24 10:24:38;;;;;;;33.63;6.13;;;10.50;1.00;;;;;;5073117;28;20289;-48
2024/01/24 10:27:04;;;;;;;24.07;5.63;;;10.50;1.00;;;;;;5071558;28;20214;-47
2024/01/24 10:29:30;;;;;;;30.77;5.63;;;10.50;1.00;;;;;;5071916;28;20206;-47
2024/01/24 10:31:56;;;;;;;33.53;6.33;;;10.50;1.00;;;;;;5072139;28;20503;-48
2024/01/24 10:34:26;;;;;;;32.43;5.77;;;10.40;1.00;;;;;;5072954;28;20420;-47
2024/01/24 10:36:52;;;;;;;27.00;5.50;;;10.30;1.00;;;;;;5070275;28;20323;-48
2024/01/24 10:39:20;;;;;;;37.40;6.67;;;10.10;1.00;;;;;;5072430;28;20506;-48
2024/01/24 10:41:51;;;;;;;39.73;6.63;;;10.10;1.00;;;;;;5073147;28;20189;-48
2024/01/24 10:44:19;;;;;;;32.53;6.30;;;10.10;1.00;;;;;;5071801;28;20496;-49
2024/01/24 10:46:45;;;;;;;38.97;5.60;;;10.10;1.00;;;;;;5071726;28;20831;-48
2024/01/24 10:49:12;;;;;;;30.73;5.23;;;10.10;1.00;;;;;;5071136;28;20464;-48
2024/01/24 10:51:38;;;;;;;36.10;5.67;;;10.00;1.00;;;;;;5071227;28;20637;-48
2024/01/24 10:54:06;;;;;;;31.03;4.97;;;10.10;1.00;;;;;;5072705;28;20839;-48
2024/01/24 10:56:32;;;;;;;30.20;5.00;;;10.10;1.00;;;;;;5071091;28;20427;-48
2024/01/24 10:59:01;;;;;;;20.67;5.10;;;10.10;1.00;;;;;;5071511;28;20413;-48
2024/01/24 11:01:27;;;;;;;30.30;5.77;;;10.00;1.00;;;;;;5072732;28;20491;-49
2024/01/24 11:03:54;;;;;;;35.37;7.00;;;10.00;1.00;;;;;;5074275;28;20420;-48
2024/01/24 11:06:21;;;;;;;28.27;5.30;;;10.00;1.00;;;;;;5074299;28;20186;-48
2024/01/24 11:08:54;;;;;;;28.30;5.47;;;9.90;1.00;;;;;;5074371;28;20542;-48
2024/01/24 11:11:21;;;;;;;35.70;5.67;;;9.70;1.00;;;;;;5074428;28;20408;-48
2024/01/24 11:13:47;;;;;;;30.70;5.00;;;9.70;1.00;;;;;;5074406;28;20425;-48
2024/01/24 11:16:34;;;;;;;38.17;5.93;;;9.50;1.00;;;;;;5074023;28;20473;-48
2024/01/24 11:19:18;;;;;;;34.07;6.57;;;9.50;8.40;;;;;;5074384;28;20560;-48
2024/01/24 11:21:43;;;;;;;34.60;5.87;;;9.40;41.50;;;;;;5074202;28;20412;-48
2024/01/24 11:24:09;;;;;;;31.03;6.03;;;9.30;79.30;;;;;;5074184;28;20900;-48
2024/01/24 11:26:34;;;;;;;39.87;5.40;;;9.40;71.50;;;;;;5071726;28;20273;-49
2024/01/24 11:29:32;;;;;;;37.27;6.57;;;9.30;58.90;;;;;;5070772;28;20209;-49
2024/01/24 11:31:58;;;;;;;38.60;6.43;;;9.30;48.60;;;;;;5070290;28;20182;-48
2024/01/24 11:34:26;;;;;;;39.40;6.50;;;9.40;37.00;;;;;;5071298;28;20975;-48
2024/01/24 11:36:53;;;;;;;32.53;5.80;;;9.50;29.40;;;;;;5070379;28;20272;-48
2024/01/24 11:39:34;;;;;;;42.13;5.70;;;9.40;58.00;;;;;;5071067;28;20942;-48
2024/01/24 11:42:30;;;;;;;38.50;5.43;;;9.30;84.30;;;;;;5070345;28;20432;-48
2024/01/24 11:45:16;;;;;;;28.97;5.20;;;9.20;99.90;;;;;;5070145;28;20451;-48
2024/01/24 11:47:41;;;;;;;30.17;4.80;;;9.10;99.90;;;;;;5070735;28;20517;-48
2024/01/24 11:50:09;;;;;;;35.87;5.97;;;9.10;99.90;;;;;;5070632;28;20502;-48
2024/01/24 11:52:34;;;;;;;34.00;7.33;;;9.00;99.90;;;;;;5070969;28;20604;-48
2024/01/24 11:55:00;;;;;;;29.63;5.37;;;9.00;99.90;;;;;;5069888;28;20503;-48
2024/01/24 11:57:27;;;;;;;42.87;6.23;;;8.80;1.00;;;;;;5070963;28;20535;-47
2024/01/24 11:59:53;;;;;;;34.07;5.80;;;8.80;64.00;;;;;;5070219;28;20538;-47
2024/01/24 12:02:19;;;;;;;34.03;7.20;;;8.70;99.90;;;;;;5070097;28;20495;-47
2024/01/24 12:04:49;;;;;;;31.83;5.90;;;8.70;99.90;;;;;;5071850;28;20650;-48
2024/01/24 12:07:15;;;;;;;41.93;7.43;;;8.60;99.90;;;;;;5070779;28;20476;-48
2024/01/24 12:09:41;;;;;;;46.00;7.60;;;8.70;99.90;;;;;;5070426;28;20974;-48
2024/01/24 12:12:12;;;;;;;32.87;6.27;;;8.70;99.90;;;;;;5070385;28;20273;-48
2024/01/24 12:14:39;;;;;;;30.63;5.10;;;8.70;1.00;;;;;;5069989;28;20416;-47
2024/01/24 12:17:05;;;;;;;31.77;6.70;;;8.80;1.00;;;;;;5069414;28;20439;-48
2024/01/24 12:19:30;;;;;;;35.50;6.30;;;8.90;99.90;;;;;;5070088;28;20900;-48
2024/01/24 12:21:58;;;;;;;28.63;5.40;;;9.00;99.90;;;;;;5070868;28;20189;-48
2024/01/24 12:24:24;;;;;;;25.27;6.03;;;9.10;99.90;;;;;;5070587;28;20181;-47
2024/01/24 12:26:50;;;;;;;33.17;5.10;;;9.20;99.90;;;;;;5068492;28;20412;-47
2024/01/24 12:29:16;;;;;;;45.00;6.67;;;9.10;99.90;;;;;;5071230;28;21017;-48
2024/01/24 12:31:45;;;;;;;37.03;6.23;;;9.10;99.90;;;;;;5070614;28;20182;-47
2024/01/24 12:34:11;;;;;;;38.03;7.27;;;9.10;99.90;;;;;;5071217;28;20451;-47
2024/01/24 12:36:37;;;;;;;29.23;5.17;;;9.10;99.90;;;;;;5070016;28;20816;-47
2024/01/24 12:39:05;;;;;;;41.90;6.43;;;9.20;99.90;;;;;;5074149;28;20499;-47
2024/01/24 12:41:31;;;;;;;47.50;6.00;;;9.30;99.90;;;;;;5073635;28;20181;-48